الصفحة الرئيسية
METAR-TAF:

METAR-TAF

مطار :

مطار أقنار - حاج باي أخاموك

تمنراست, الجزائر

دائرة عرض: 22-49N, خط طول: 005-28E, ارتفاع: 1377 متر

مراقبة الطقس الحالي

تاريخ ووقت الإصدار 28 دقيقة قبل الساعة 20:30UTC
ريح 4 عقدة من الجنوب/الجنوب الشرقي
درجة الحرارة 11°درجة مئوية
ضغط 1023 hPa
الرؤية 10 كم أو أكثر
الغيوم لا تقل 1500 م ولا وجود لمزنة ركامية السحاب الأسود

METAR: DAAT 132030Z 16004KT CAVOK 11/// Q1023

زمن: 21:58 (20:58 UTC)

توقعات

تاريخ ووقت الإصدار 9ساعات و 58 دقيقة قبل الساعة 11:00UTC
التوقعات صالحة من13 الساعة 12 UTC إلى 14 الساعة 12 UTC
ريح 12 عقدة من الغرب
الرؤية 10 كم أو أكثر
الغيوم لا تقل 1500 م ولا وجود لمزنة ركامية السحاب الأسود
أصبح
من 13 الساعة 18 UTC إلى 13 الساعة 21 UTC
ريح 8 عقدة من الشمال

TAF: DAAT 131100Z 1312/1412 27012KT CAVOK BECMG 1318/1321 01008KT

أرصاد الطقس والتوقعات من أكثر من 4000 مطار (تقارير الطقس للمطار METAR والتنبؤ بالطقس بالمطارTAF).

المحطات المتاحة هي النقط الصفراء والحمراء على الخريطة.

حرك المؤشر فوق النقطة لمعرفة اسم المحطة.

ثم انقر لمعرفة أرصاد وتوقعات الطقس.

لتغيير الخارطة: اضغط على الأزرار الخضراء مع رمز الصليب الأسود للتكبير. على الزر الأخضر مع شرطة للتصغير، أو على الأسهم الخضراء للخرائط المجاورة.


METAR-TAF: